createdAt,value
2017-12-10T00:00:55.858Z,99646.62
2017-12-10T00:03:23.341Z,99648.80
2017-12-10T00:05:50.854Z,99642.91
2017-12-10T00:08:18.368Z,99643.77
2017-12-10T00:10:46.569Z,99641.63
2017-12-10T00:13:14.126Z,99645.00
2017-12-10T00:15:41.599Z,99639.47
2017-12-10T00:18:09.070Z,99633.23
2017-12-10T00:20:36.537Z,99626.93
2017-12-10T00:23:04.405Z,99628.19
2017-12-10T00:25:31.906Z,99619.78
2017-12-10T00:27:59.398Z,99626.12
2017-12-10T00:30:27.161Z,99620.20
2017-12-10T00:32:54.661Z,99611.83
2017-12-10T00:35:22.145Z,99609.30
2017-12-10T00:37:49.634Z,99611.41
2017-12-10T00:40:17.129Z,99600.53
2017-12-10T00:42:44.722Z,99597.15
2017-12-10T00:45:12.719Z,99592.95
2017-12-10T00:47:40.179Z,99580.33
2017-12-10T00:50:07.653Z,99579.92
2017-12-10T00:52:36.568Z,99574.87
2017-12-10T00:55:04.947Z,99571.10
2017-12-10T00:57:32.437Z,99555.98
2017-12-10T00:59:59.907Z,99553.44
2017-12-10T01:02:27.362Z,99547.55
2017-12-10T01:04:54.939Z,99543.34
2017-12-10T01:07:22.414Z,99537.89
2017-12-10T01:09:49.900Z,99535.77
2017-12-10T01:12:17.374Z,99527.73
2017-12-10T01:14:45.590Z,99531.10
2017-12-10T01:17:13.107Z,99531.11
2017-12-10T01:19:40.896Z,99520.16
2017-12-10T01:22:08.475Z,99513.84
2017-12-10T01:24:36.003Z,99518.48
2017-12-10T01:27:03.564Z,99523.94
2017-12-10T01:29:31.328Z,99520.14
2017-12-10T01:31:59.257Z,99516.36
2017-12-10T01:34:26.757Z,99512.14
2017-12-10T01:36:54.238Z,99518.42
2017-12-10T01:39:21.741Z,99508.78
2017-12-10T01:41:49.266Z,99502.47
2017-12-10T01:44:16.784Z,99497.41
2017-12-10T01:46:44.256Z,99496.52
2017-12-10T01:49:12.226Z,99504.16
2017-12-10T01:51:39.735Z,99500.34
2017-12-10T01:54:07.588Z,99500.76
2017-12-10T01:56:36.108Z,99496.13
2017-12-10T01:59:03.574Z,99494.03
2017-12-10T02:01:31.130Z,99485.63
2017-12-10T02:03:58.617Z,99473.03
2017-12-10T02:06:26.129Z,99455.38
2017-12-10T02:08:53.955Z,99463.39
2017-12-10T02:11:21.431Z,99454.16
2017-12-10T02:13:48.902Z,99452.03
2017-12-10T02:16:16.373Z,99447.84
2017-12-10T02:18:43.978Z,99441.09
2017-12-10T02:21:11.483Z,99435.24
2017-12-10T02:23:38.945Z,99432.26
2017-12-10T02:26:06.521Z,99423.05
2017-12-10T02:28:35.107Z,99420.95
2017-12-10T02:31:02.666Z,99416.75
2017-12-10T02:33:30.194Z,99417.16
2017-12-10T02:35:57.654Z,99416.34
2017-12-10T02:38:25.130Z,99410.02
2017-12-10T02:40:52.610Z,99407.91
2017-12-10T02:43:20.082Z,99402.86
2017-12-10T02:45:47.547Z,99388.59
2017-12-10T02:48:15.185Z,99393.23
2017-12-10T02:50:42.881Z,99396.58
2017-12-10T02:53:10.342Z,99381.86
2017-12-10T02:55:37.845Z,99374.31
2017-12-10T02:58:05.310Z,99373.87
2017-12-10T03:00:32.799Z,99370.13
2017-12-10T03:03:00.562Z,99364.20
2017-12-10T03:05:28.062Z,99374.73
2017-12-10T03:07:55.573Z,99363.81
2017-12-10T03:10:23.056Z,99358.77
2017-12-10T03:12:50.680Z,99354.15
2017-12-10T03:15:18.142Z,99355.01
2017-12-10T03:17:45.616Z,99351.64
2017-12-10T03:20:13.109Z,99343.23
2017-12-10T03:22:40.597Z,99332.32
2017-12-10T03:25:08.077Z,99342.81
2017-12-10T03:27:35.537Z,99329.36
2017-12-10T03:30:03.017Z,99333.14
2017-12-10T03:32:30.474Z,99315.52
2017-12-10T03:34:57.939Z,99321.79
2017-12-10T03:37:25.414Z,99307.09
2017-12-10T03:39:52.910Z,99310.47
2017-12-10T03:42:20.374Z,99302.91
2017-12-10T03:44:47.858Z,99304.17
2017-12-10T03:47:15.325Z,99297.42
2017-12-10T03:49:42.818Z,99294.92
2017-12-10T03:52:10.293Z,99290.70
2017-12-10T03:54:37.783Z,99286.95
2017-12-10T03:57:05.289Z,99283.16
2017-12-10T03:59:32.764Z,99279.79
2017-12-10T04:02:00.229Z,99283.14
2017-12-10T04:04:27.716Z,99267.61
2017-12-10T04:06:55.294Z,99261.31
2017-12-10T04:09:22.764Z,99257.95
2017-12-10T04:11:50.245Z,99249.54
2017-12-10T04:14:17.727Z,99244.92
2017-12-10T04:16:45.223Z,99240.71
2017-12-10T04:19:12.691Z,99239.45
2017-12-10T04:21:40.192Z,99238.19
2017-12-10T04:24:07.660Z,99243.67
2017-12-10T04:26:35.131Z,99231.05
2017-12-10T04:29:02.611Z,99234.00
2017-12-10T04:31:30.153Z,99236.09
2017-12-10T04:33:57.605Z,99228.12
2017-12-10T04:36:25.105Z,99217.19
2017-12-10T04:38:52.565Z,99217.20
2017-12-10T04:41:20.042Z,99214.67
2017-12-10T04:43:47.529Z,99213.84
2017-12-10T04:46:15.013Z,99219.72
2017-12-10T04:48:42.510Z,99200.37
2017-12-10T04:51:09.995Z,99199.55
2017-12-10T04:53:37.504Z,99196.19
2017-12-10T04:56:04.974Z,99183.15
2017-12-10T04:58:32.456Z,99176.87
2017-12-10T05:00:59.936Z,99173.91
2017-12-10T05:03:27.405Z,99173.09
2017-12-10T05:05:54.914Z,99172.66
2017-12-10T05:08:22.433Z,99174.34
2017-12-10T05:10:49.912Z,99157.95
2017-12-10T05:13:17.391Z,99139.89
2017-12-10T05:15:44.893Z,99144.10
2017-12-10T05:18:12.373Z,99136.95
2017-12-10T05:20:40.032Z,99134.00
2017-12-10T05:23:07.516Z,99134.41
2017-12-10T05:25:35.009Z,99134.84
2017-12-10T05:28:02.470Z,99123.06
2017-12-10T05:30:30.157Z,99115.94
2017-12-10T05:32:57.629Z,99118.88
2017-12-10T05:35:25.114Z,99115.93
2017-12-10T05:37:52.581Z,99115.11
2017-12-10T05:40:20.049Z,99104.19
2017-12-10T05:42:47.528Z,99108.81
2017-12-10T05:45:15.012Z,99102.48
2017-12-10T05:47:42.494Z,99099.99
2017-12-10T05:50:10.013Z,99099.98
2017-12-10T05:52:37.484Z,99087.80
2017-12-10T05:55:04.962Z,99092.81
2017-12-10T05:57:32.437Z,99078.96
2017-12-10T05:59:59.958Z,99073.91
2017-12-10T06:02:27.440Z,99060.05
2017-12-10T06:04:54.949Z,99049.58
2017-12-10T06:07:22.521Z,99044.95
2017-12-10T06:09:49.974Z,99034.86
2017-12-10T06:12:17.549Z,99035.31
2017-12-10T06:14:45.068Z,99028.56
2017-12-10T06:17:12.538Z,99024.39
2017-12-10T06:19:40.024Z,99017.25
2017-12-10T06:22:07.550Z,99022.77
2017-12-10T06:24:35.037Z,99017.28
2017-12-10T06:27:02.533Z,99007.22
2017-12-10T06:29:30.022Z,99000.09
2017-12-10T06:31:57.525Z,98990.48
2017-12-10T06:34:25.042Z,98984.58
2017-12-10T06:36:52.502Z,98988.37
2017-12-10T06:39:19.958Z,98970.30
2017-12-10T06:41:47.446Z,98962.38
2017-12-10T06:44:14.928Z,98951.88
2017-12-10T06:46:42.401Z,98952.70
2017-12-10T06:49:09.880Z,98935.91
2017-12-10T06:51:37.496Z,98939.70
2017-12-10T06:54:04.971Z,98926.66
2017-12-10T06:56:33.328Z,98926.69
2017-12-10T06:59:00.809Z,98922.07
2017-12-10T07:01:28.297Z,98924.14
2017-12-10T07:03:55.800Z,98911.52
2017-12-10T07:06:23.265Z,98903.44
2017-12-10T07:08:50.721Z,98889.22
2017-12-10T07:11:21.228Z,98886.63
2017-12-10T07:13:48.715Z,98879.11
2017-12-10T07:16:16.207Z,98879.55
2017-12-10T07:18:43.689Z,98870.33
2017-12-10T07:21:12.736Z,98869.91
2017-12-10T07:23:40.243Z,98853.95
2017-12-10T07:26:07.759Z,98850.59
2017-12-10T07:28:35.227Z,98852.67
2017-12-10T07:31:02.725Z,98849.30
2017-12-10T07:33:30.350Z,98842.59
2017-12-10T07:35:57.836Z,98834.60
2017-12-10T07:38:25.760Z,98842.56
2017-12-10T07:40:53.297Z,98840.88
2017-12-10T07:43:20.790Z,98823.67
2017-12-10T07:45:48.314Z,98811.47
2017-12-10T07:48:16.762Z,98804.34
2017-12-10T07:50:47.701Z,98794.28
2017-12-10T07:53:15.171Z,98797.19
2017-12-10T07:55:42.676Z,98795.09
2017-12-10T07:58:10.257Z,98797.17
2017-12-10T08:00:38.836Z,98796.32
2017-12-10T08:03:06.298Z,98791.30
2017-12-10T08:05:33.758Z,98803.47
2017-12-10T08:08:01.238Z,98797.14
2017-12-10T08:10:28.856Z,98785.38
2017-12-10T08:12:56.441Z,98773.64
2017-12-10T08:15:23.973Z,98769.42
2017-12-10T08:17:51.502Z,98756.45
2017-12-10T08:20:18.994Z,98756.08
2017-12-10T08:22:46.484Z,98751.43
2017-12-10T08:25:13.998Z,98746.00
2017-12-10T08:27:41.517Z,98740.92
2017-12-10T08:30:08.991Z,98738.85
2017-12-10T08:32:36.476Z,98730.88
2017-12-10T08:35:03.966Z,98729.60
2017-12-10T08:37:32.872Z,98720.80
2017-12-10T08:40:00.378Z,98708.66
2017-12-10T08:42:27.892Z,98699.84
2017-12-10T08:44:55.397Z,98683.86
2017-12-10T08:47:22.889Z,98688.46
2017-12-10T08:49:50.361Z,98673.77
2017-12-10T08:52:17.884Z,98661.17
2017-12-10T08:54:45.430Z,98660.66
2017-12-10T08:57:12.938Z,98651.84
2017-12-10T08:59:40.435Z,98643.43
2017-12-10T09:02:07.943Z,98638.40
2017-12-10T09:04:35.406Z,98633.70
2017-12-10T09:07:03.012Z,98632.05
2017-12-10T09:12:26.323Z,98619.81
2017-12-10T09:14:53.816Z,98605.08
2017-12-10T09:17:21.274Z,98608.86
2017-12-10T09:19:48.758Z,98584.92
2017-12-10T09:22:16.226Z,98576.94
2017-12-10T09:24:43.731Z,98573.98
2017-12-10T09:27:11.215Z,98567.27
2017-12-10T09:29:38.666Z,98560.08
2017-12-10T09:32:06.154Z,98559.20
2017-12-10T09:34:33.614Z,98542.86
2017-12-10T09:37:01.110Z,98522.25
2017-12-10T09:39:28.577Z,98527.70
2017-12-10T09:41:56.109Z,98518.85
2017-12-10T09:44:23.556Z,98504.55
2017-12-10T09:46:51.044Z,98495.64
2017-12-10T09:49:18.556Z,98496.85
2017-12-10T09:51:46.080Z,98485.07
2017-12-10T09:54:13.669Z,98481.64
2017-12-10T09:56:41.187Z,98469.44
2017-12-10T09:59:08.668Z,98462.61
2017-12-10T10:01:36.158Z,98442.45
2017-12-10T10:04:03.656Z,98432.35
2017-12-10T10:06:31.122Z,98429.33
2017-12-10T10:11:48.871Z,98403.13
2017-12-10T10:14:16.336Z,98396.86
2017-12-10T10:16:43.862Z,98376.73
2017-12-10T10:19:11.371Z,98376.78
2017-12-10T10:21:38.884Z,98363.28
2017-12-10T10:24:06.464Z,98354.81
2017-12-10T10:26:34.010Z,98345.16
2017-12-10T10:29:01.531Z,98338.77
2017-12-10T10:31:29.040Z,98330.35
2017-12-10T10:33:56.892Z,98321.05
2017-12-10T10:36:24.382Z,98318.00
2017-12-10T10:38:51.871Z,98305.39
2017-12-10T10:41:19.354Z,98298.41
2017-12-10T10:43:46.863Z,98280.61
2017-12-10T10:46:14.356Z,98279.73
2017-12-10T10:48:41.831Z,98262.96
2017-12-10T10:51:09.356Z,98251.56
2017-12-10T10:53:36.829Z,98238.65
2017-12-10T10:56:04.336Z,98223.96
2017-12-10T10:58:31.847Z,98208.37
2017-12-10T11:00:59.423Z,98191.36
2017-12-10T11:03:26.933Z,98173.22
2017-12-10T11:05:54.420Z,98169.00
2017-12-10T11:08:21.896Z,98157.20
2017-12-10T11:10:49.381Z,98151.88
2017-12-10T11:13:16.883Z,98134.16
2017-12-10T11:15:44.620Z,98139.20
2017-12-10T11:18:12.100Z,98132.98
2017-12-10T11:20:39.595Z,98114.84
2017-12-10T11:23:07.176Z,98100.19
2017-12-10T11:25:34.716Z,98095.92
2017-12-10T11:28:02.227Z,98083.13
2017-12-10T11:30:29.707Z,98078.49
2017-12-10T11:32:57.191Z,98076.98
2017-12-10T11:35:24.696Z,98067.44
2017-12-10T11:37:52.194Z,98065.74
2017-12-10T11:40:19.692Z,98040.97
2017-12-10T11:42:47.183Z,98042.42
2017-12-10T11:45:14.693Z,98027.31
2017-12-10T11:47:42.190Z,98013.10
2017-12-10T11:50:09.691Z,98011.17
2017-12-10T11:52:37.165Z,97999.80
2017-12-10T11:55:04.648Z,98005.55
2017-12-10T11:57:32.131Z,97980.28
2017-12-10T11:59:59.616Z,97990.42
2017-12-10T12:02:27.116Z,97977.09
2017-12-10T12:04:54.620Z,97963.17
2017-12-10T12:07:22.136Z,97957.00
2017-12-10T12:09:49.887Z,97952.34
2017-12-10T12:12:17.389Z,97935.99
2017-12-10T12:14:44.919Z,97923.80
2017-12-10T12:17:12.406Z,97899.00
2017-12-10T12:19:39.932Z,97905.25
2017-12-10T12:22:07.443Z,97885.02
2017-12-10T12:24:34.946Z,97875.58
2017-12-10T12:27:02.425Z,97870.27
2017-12-10T12:29:29.926Z,97852.53
2017-12-10T12:31:57.421Z,97826.07
2017-12-10T12:34:24.897Z,97810.51
2017-12-10T12:36:52.386Z,97799.40
2017-12-10T12:39:19.860Z,97779.80
2017-12-10T12:41:47.869Z,97766.93
2017-12-10T12:44:15.397Z,97764.96
2017-12-10T12:46:43.267Z,97750.72
2017-12-10T12:49:10.745Z,97741.47
2017-12-10T12:51:39.085Z,97735.70
2017-12-10T12:54:06.593Z,97737.78
2017-12-10T12:56:34.196Z,97733.56
2017-12-10T12:59:01.695Z,97730.34
2017-12-10T13:01:32.252Z,97725.27
2017-12-10T13:03:59.737Z,97731.09
2017-12-10T13:06:27.260Z,97708.84
2017-12-10T13:08:54.767Z,97695.42
2017-12-10T13:11:22.260Z,97691.73
2017-12-10T13:13:49.766Z,97672.41
2017-12-10T13:16:17.282Z,97671.98
2017-12-10T13:18:44.765Z,97656.44
2017-12-10T13:21:12.253Z,97658.08
2017-12-10T13:23:39.753Z,97640.09
2017-12-10T13:26:07.267Z,97628.88
2017-12-10T13:28:34.759Z,97636.00
2017-12-10T13:31:02.273Z,97634.80
2017-12-10T13:33:29.788Z,97647.27
2017-12-10T13:35:57.269Z,97631.49
2017-12-10T13:38:24.799Z,97633.57
2017-12-10T13:40:52.285Z,97610.12
2017-12-10T13:43:19.779Z,97620.54
2017-12-10T13:45:47.418Z,97595.41
2017-12-10T13:48:14.889Z,97590.85
2017-12-10T13:50:42.388Z,97589.19
2017-12-10T13:53:09.872Z,97593.40
2017-12-10T13:55:37.400Z,97608.45
2017-12-10T13:58:04.877Z,97593.78
2017-12-10T14:00:32.386Z,97604.27
2017-12-10T14:02:59.872Z,97596.64
2017-12-10T14:05:27.349Z,97596.23
2017-12-10T14:07:54.843Z,97592.90
2017-12-10T14:10:22.365Z,97589.44
2017-12-10T14:12:49.876Z,97585.56
2017-12-10T14:15:17.380Z,97589.69
2017-12-10T14:17:44.858Z,97588.49
2017-12-10T14:20:12.363Z,97597.12
2017-12-10T14:22:39.825Z,97605.63
2017-12-10T14:25:07.309Z,97604.77
2017-12-10T14:27:34.809Z,97612.95
2017-12-10T14:30:03.039Z,97614.11
2017-12-10T14:32:30.539Z,97621.78
2017-12-10T14:34:58.028Z,97612.20
2017-12-10T14:37:25.822Z,97612.50
2017-12-10T14:39:53.319Z,97595.62
2017-12-10T14:42:20.797Z,97591.28
2017-12-10T14:44:48.290Z,97582.25
2017-12-10T14:47:15.784Z,97570.34
2017-12-10T14:49:43.286Z,97556.50
2017-12-10T14:52:10.779Z,97554.14
2017-12-10T14:54:38.360Z,97555.78
2017-12-10T14:57:05.865Z,97547.30
2017-12-10T14:59:33.357Z,97546.66
2017-12-10T15:02:00.860Z,97541.70
2017-12-10T15:04:28.366Z,97520.50
2017-12-10T15:06:55.859Z,97521.03
2017-12-10T15:09:23.364Z,97512.80
2017-12-10T15:11:50.915Z,97500.24
2017-12-10T15:14:20.995Z,97501.07
2017-12-10T15:16:48.517Z,97480.28
2017-12-10T15:19:16.105Z,97448.83
2017-12-10T15:21:43.623Z,97435.12
2017-12-10T15:24:11.718Z,97415.42
2017-12-10T15:26:40.713Z,97410.37
2017-12-10T15:29:08.264Z,97396.70
2017-12-10T15:31:35.845Z,97409.86
2017-12-10T15:34:03.648Z,97418.41
2017-12-10T15:36:31.167Z,97398.41
2017-12-10T15:38:58.714Z,97385.78
2017-12-10T15:41:26.278Z,97369.54
2017-12-10T15:43:53.851Z,97374.64
2017-12-10T15:46:21.351Z,97360.32
2017-12-10T15:48:48.876Z,97358.68
2017-12-10T15:51:16.533Z,97332.73
2017-12-10T15:53:44.113Z,97345.34
2017-12-10T15:56:11.732Z,97333.58
2017-12-10T15:58:39.232Z,97339.22
2017-12-10T16:01:06.839Z,97338.00
2017-12-10T16:03:34.403Z,97312.46
2017-12-10T16:06:01.930Z,97314.16
2017-12-10T16:08:29.432Z,97310.00
2017-12-10T16:10:56.924Z,97303.67
2017-12-10T16:13:24.428Z,97297.89
2017-12-10T16:15:53.327Z,97291.62
2017-12-10T16:18:20.861Z,97279.86
2017-12-10T16:20:48.375Z,97248.16
2017-12-10T16:23:15.936Z,97283.38
2017-12-10T16:25:43.437Z,97256.13
2017-12-10T16:28:10.985Z,97231.39
2017-12-10T16:30:38.500Z,97256.11
2017-12-10T16:33:06.056Z,97250.16
2017-12-10T16:35:33.567Z,97245.19
2017-12-10T16:38:01.152Z,97222.23
2017-12-10T16:40:28.733Z,97217.27
2017-12-10T16:42:56.237Z,97215.69
2017-12-10T16:45:23.717Z,97206.98
2017-12-10T16:47:51.281Z,97215.73
2017-12-10T16:50:18.885Z,97189.97
2017-12-10T16:52:46.864Z,97205.55
2017-12-10T16:55:14.433Z,97198.19
2017-12-10T16:57:42.113Z,97185.05
2017-12-10T17:00:09.652Z,97195.27
2017-12-10T17:02:37.156Z,97188.73
2017-12-10T17:05:04.819Z,97193.80
2017-12-10T17:07:32.429Z,97193.83
2017-12-10T17:10:00.343Z,97174.20
2017-12-10T17:12:28.686Z,97158.75
2017-12-10T17:14:56.215Z,97159.62
2017-12-10T17:17:24.028Z,97139.53
2017-12-10T17:19:51.513Z,97135.91
2017-12-10T17:22:19.030Z,97141.30
2017-12-10T17:24:46.583Z,97123.10
2017-12-10T17:27:14.101Z,97120.63
2017-12-10T17:29:41.628Z,97114.59
2017-12-10T17:32:09.161Z,97102.61
2017-12-10T17:34:36.661Z,97120.97
2017-12-10T17:37:05.720Z,97108.14
2017-12-10T17:39:33.401Z,97115.98
2017-12-10T17:42:00.890Z,97096.80
2017-12-10T17:44:28.402Z,97088.87
2017-12-10T17:46:55.933Z,97087.97
2017-12-10T17:49:23.538Z,97067.82
2017-12-10T17:51:51.155Z,97076.66
2017-12-10T17:54:18.762Z,97045.23
2017-12-10T17:56:46.537Z,97059.05
2017-12-10T17:59:14.250Z,97060.27
2017-12-10T18:01:41.765Z,97052.69
2017-12-10T18:04:09.272Z,97055.17
2017-12-10T18:06:36.845Z,97039.27
2017-12-10T18:09:04.455Z,97039.22
2017-12-10T18:11:32.018Z,97046.73
2017-12-10T18:13:59.543Z,97025.74
2017-12-10T18:16:28.973Z,97022.67
2017-12-10T18:18:56.561Z,97016.43
2017-12-10T18:21:24.218Z,97019.00
2017-12-10T18:23:51.766Z,97019.88
2017-12-10T18:26:19.286Z,97013.17
2017-12-10T18:28:46.879Z,97016.12
2017-12-10T18:31:15.247Z,97006.87
2017-12-10T18:33:42.737Z,97023.14
2017-12-10T18:36:10.270Z,97010.38
2017-12-10T18:38:37.796Z,97006.84
2017-12-10T18:41:05.336Z,96996.95
2017-12-10T18:43:32.882Z,96997.37
2017-12-10T18:46:00.404Z,96994.98
2017-12-10T18:48:27.949Z,96998.47
2017-12-10T18:50:55.679Z,96989.97
2017-12-10T18:53:26.683Z,96969.02
2017-12-10T18:55:54.268Z,96976.95
2017-12-10T18:58:22.153Z,96973.06
2017-12-10T19:00:50.079Z,96978.93
2017-12-10T19:03:17.620Z,96970.12
2017-12-10T19:05:45.148Z,96974.53
2017-12-10T19:08:12.712Z,96968.84
2017-12-10T19:10:40.251Z,96958.41
2017-12-10T19:13:07.800Z,96968.81
2017-12-10T19:15:35.548Z,96949.78
2017-12-10T19:18:03.180Z,96953.48
2017-12-10T19:20:30.698Z,96949.58
2017-12-10T19:22:58.235Z,96954.84
2017-12-10T19:25:25.742Z,96941.19
2017-12-10T19:27:53.397Z,96951.84
2017-12-10T19:30:20.953Z,96939.66
2017-12-10T19:32:48.474Z,96936.97
2017-12-10T19:35:16.029Z,96931.17
2017-12-10T19:37:43.604Z,96925.74
2017-12-10T19:40:11.357Z,96937.56
2017-12-10T19:42:38.955Z,96926.52
2017-12-10T19:45:06.604Z,96919.64
2017-12-10T19:47:34.572Z,96909.69
2017-12-10T19:50:02.300Z,96913.27
2017-12-10T19:52:29.964Z,96904.64
2017-12-10T19:54:57.578Z,96905.26
2017-12-10T19:57:25.084Z,96908.45
2017-12-10T19:59:52.583Z,96904.05
2017-12-10T20:02:20.093Z,96903.64
2017-12-10T20:04:47.581Z,96900.96
2017-12-10T20:07:15.125Z,96897.11
2017-12-10T20:09:42.609Z,96894.39
2017-12-10T20:12:10.115Z,96892.36
2017-12-10T20:14:37.645Z,96900.72
2017-12-10T20:17:05.151Z,96886.75
2017-12-10T20:19:32.661Z,96887.04
2017-12-10T20:22:00.992Z,96883.78
2017-12-10T20:24:28.857Z,96885.48
2017-12-10T20:26:56.351Z,96878.61
2017-12-10T20:29:23.864Z,96877.69
2017-12-10T20:31:51.346Z,96866.78
2017-12-10T20:34:18.884Z,96863.05
2017-12-10T20:36:46.389Z,96859.87
2017-12-10T20:39:13.883Z,96859.50
2017-12-10T20:41:41.406Z,96852.13
2017-12-10T20:44:09.134Z,96861.34
2017-12-10T20:46:36.703Z,96844.38
2017-12-10T20:49:04.266Z,96848.09
2017-12-10T20:51:31.785Z,96844.47
2017-12-10T20:53:59.256Z,96837.00
2017-12-10T20:56:26.769Z,96831.44
2017-12-10T20:58:54.283Z,96826.08
2017-12-10T21:01:21.804Z,96830.66
2017-12-10T21:03:49.310Z,96814.81
2017-12-10T21:06:16.832Z,96812.98
2017-12-10T21:08:44.340Z,96817.83
2017-12-10T21:11:11.848Z,96813.91
2017-12-10T21:13:39.331Z,96811.20
2017-12-10T21:16:06.887Z,96808.65
2017-12-10T21:18:34.406Z,96801.76
2017-12-10T21:21:01.908Z,96810.05
2017-12-10T21:23:29.436Z,96799.02
2017-12-10T21:25:56.927Z,96784.96
2017-12-10T21:28:24.471Z,96801.20
2017-12-10T21:30:51.987Z,96798.83
2017-12-10T21:33:19.511Z,96802.72
2017-12-10T21:35:47.045Z,96792.31
2017-12-10T21:38:14.547Z,96789.84
2017-12-10T21:40:42.051Z,96789.09
2017-12-10T21:43:09.588Z,96796.66
2017-12-10T21:45:37.087Z,96786.14
2017-12-10T21:48:04.589Z,96779.50
2017-12-10T21:50:32.162Z,96793.21
2017-12-10T21:52:59.638Z,96769.94
2017-12-10T21:55:27.160Z,96761.86
2017-12-10T21:57:54.662Z,96777.16
2017-12-10T22:00:22.177Z,96766.11
2017-12-10T22:02:49.693Z,96777.77
2017-12-10T22:05:17.213Z,96751.69
2017-12-10T22:07:44.809Z,96761.25
2017-12-10T22:10:12.316Z,96764.83
2017-12-10T22:12:39.862Z,96756.84
2017-12-10T22:15:07.349Z,96757.62
2017-12-10T22:17:34.867Z,96745.48
2017-12-10T22:20:02.345Z,96742.09
2017-12-10T22:22:29.824Z,96756.19
2017-12-10T22:24:57.321Z,96738.11
2017-12-10T22:27:24.837Z,96740.17
2017-12-10T22:29:52.325Z,96726.61
2017-12-10T22:32:19.808Z,96735.54
2017-12-10T22:34:47.305Z,96735.44
2017-12-10T22:37:14.807Z,96727.12
2017-12-10T22:39:42.302Z,96722.34
2017-12-10T22:42:09.789Z,96731.27
2017-12-10T22:44:37.272Z,96724.42
2017-12-10T22:47:04.778Z,96721.53
2017-12-10T22:49:32.257Z,96728.36
2017-12-10T22:51:59.739Z,96731.72
2017-12-10T22:54:27.228Z,96739.82
2017-12-10T22:56:54.725Z,96739.33
2017-12-10T22:59:22.223Z,96728.30
2017-12-10T23:01:49.738Z,96730.77
2017-12-10T23:04:17.236Z,96728.38
2017-12-10T23:06:44.822Z,96721.40
2017-12-10T23:09:12.292Z,96724.65
2017-12-10T23:11:39.773Z,96734.30
2017-12-10T23:14:07.276Z,96754.81
2017-12-10T23:16:34.888Z,96759.53
2017-12-10T23:19:02.420Z,96763.66
2017-12-10T23:21:29.927Z,96764.75
2017-12-10T23:23:57.427Z,96766.34
2017-12-10T23:26:24.892Z,96775.30
2017-12-10T23:28:52.388Z,96772.89
2017-12-10T23:31:19.878Z,96781.64
2017-12-10T23:33:47.375Z,96786.30
2017-12-10T23:36:14.967Z,96804.66
2017-12-10T23:38:42.457Z,96814.89
2017-12-10T23:41:09.957Z,96794.98
2017-12-10T23:43:37.479Z,96760.30
2017-12-10T23:46:04.992Z,96793.85
2017-12-10T23:48:32.487Z,96806.54
2017-12-10T23:50:59.995Z,96820.23
2017-12-10T23:53:27.473Z,96825.77
2017-12-10T23:55:54.997Z,96848.44
2017-12-10T23:58:22.505Z,96848.64
